Pola de Laviana, Spain
Current Conditions -  °F | °C
As of 8:00 PM on Friday 21 Nov 2014 (Local Time) from LEAS Reporting Station
Clear Clear  
Wind Chill: 61°   Ceiling: Unl
Heat Index: 61°   Visibility: 6mi
Dew Point: 55°   Wind: 2mph
Humidity: 82%   Direction: NA
Pressure: 29.88"   Gusts: NA
Location:  43.25°N, 5.56°W
Report Text: LEAS 211900Z VRB02KT CAVOK 16/13 Q1012 NOSIG
Loading
Personal Weather Stations






























Interactive Weather Map New forecast layout! Learn more

10-Day Weather Forecast

Advertisements
Track Severe Weather on mobile